createdAt,value
2018-04-10T00:00:54.080Z,5.87
2018-04-10T00:06:44.675Z,5.37
2018-04-10T00:12:35.356Z,5.32
2018-04-10T00:18:26.040Z,5.62
2018-04-10T00:24:16.709Z,5.33
2018-04-10T00:30:07.330Z,6.07
2018-04-10T00:35:58.017Z,5.8
2018-04-10T00:41:48.673Z,5.82
2018-04-10T00:47:39.310Z,4.9
2018-04-10T00:53:30.010Z,4.67
2018-04-10T00:59:20.624Z,5.19
2018-04-10T01:05:11.272Z,4.88
2018-04-10T01:11:01.982Z,4.23
2018-04-10T01:16:52.602Z,3.58
2018-04-10T01:22:43.269Z,3.67
2018-04-10T01:28:33.920Z,3.71
2018-04-10T01:34:24.651Z,4
2018-04-10T01:40:15.215Z,3.93
2018-04-10T01:46:05.947Z,4.2
2018-04-10T01:51:56.526Z,3.53
2018-04-10T01:57:47.215Z,3.93
2018-04-10T02:03:37.864Z,4.25
2018-04-10T02:15:19.145Z,3.17
2018-04-10T02:21:09.804Z,4.37
2018-04-10T02:27:00.444Z,4.15
2018-04-10T02:32:51.096Z,4.97
2018-04-10T02:38:41.718Z,3.73
2018-04-10T02:44:32.398Z,4.25
2018-04-10T02:50:23.045Z,3.96
2018-04-10T02:56:13.707Z,4.3
2018-04-10T03:02:04.342Z,4.01
2018-04-10T03:07:55.065Z,3.71
2018-04-10T03:13:45.628Z,4.07
2018-04-10T03:19:36.259Z,3.75
2018-04-10T03:25:26.913Z,3.46
2018-04-10T03:31:17.585Z,3.85
2018-04-10T03:37:08.200Z,4.23
2018-04-10T03:42:58.874Z,3.37
2018-04-10T03:48:49.515Z,3.77
2018-04-10T03:54:40.144Z,3.88
2018-04-10T04:00:30.797Z,3.99
2018-04-10T04:06:21.498Z,3.71
2018-04-10T04:12:12.100Z,3.73
2018-04-10T04:18:02.721Z,4.2
2018-04-10T04:23:53.395Z,4.31
2018-04-10T04:29:44.084Z,4.87
2018-04-10T04:35:34.738Z,4.7
2018-04-10T04:41:25.315Z,3.66
2018-04-10T04:47:15.941Z,4.84
2018-04-10T04:53:06.600Z,4.37
2018-04-10T04:58:57.274Z,4.34
2018-04-10T05:04:47.887Z,4
2018-04-10T05:10:38.517Z,4.06
2018-04-10T05:16:29.193Z,3.77
2018-04-10T05:22:19.825Z,4.96
2018-04-10T05:28:10.593Z,4.68
2018-04-10T05:34:01.172Z,3.84
2018-04-10T05:39:51.773Z,5.05
2018-04-10T05:45:42.439Z,4.99
2018-04-10T05:51:33.052Z,4.55
2018-04-10T05:57:23.734Z,4.55
2018-04-10T06:03:14.362Z,4.51
2018-04-10T06:09:05.034Z,4.91
2018-04-10T06:14:55.636Z,4.76
2018-04-10T06:20:46.332Z,4.49
2018-04-10T06:26:36.936Z,4.18
2018-04-10T06:32:27.623Z,4.84
2018-04-10T06:38:18.232Z,4.98
2018-04-10T06:44:08.938Z,5.31
2018-04-10T06:49:59.545Z,5.32
2018-04-10T06:55:50.209Z,4.88
2018-04-10T07:01:40.908Z,4.19
2018-04-10T07:07:31.519Z,3.99
2018-04-10T07:13:22.203Z,3.11
2018-04-10T07:19:12.828Z,3.42
2018-04-10T07:25:03.498Z,3.12
2018-04-10T07:30:54.153Z,3.18
2018-04-10T07:36:44.812Z,3.2
2018-04-10T07:42:35.495Z,2.74
2018-04-10T07:48:26.204Z,3.06
2018-04-10T07:54:16.833Z,3.47
2018-04-10T08:00:07.512Z,2.71
2018-04-10T08:05:58.171Z,2.13
2018-04-10T08:11:48.833Z,2.16
2018-04-10T08:17:39.520Z,2.14
2018-04-10T08:23:30.209Z,2.78
2018-04-10T08:29:20.894Z,2.27
2018-04-10T08:35:11.583Z,1.89
2018-04-10T08:41:02.301Z,2.43
2018-04-10T08:46:52.940Z,2.4
2018-04-10T08:52:43.650Z,2.22
2018-04-10T08:58:34.284Z,2.01
2018-04-10T09:04:24.976Z,1.86
2018-04-10T09:10:15.673Z,2.07
2018-04-10T09:16:06.344Z,2.08
2018-04-10T09:21:57.012Z,2.2
2018-04-10T09:27:47.682Z,2.23
2018-04-10T09:33:38.399Z,2.28
2018-04-10T09:39:29.080Z,1.81
2018-04-10T09:45:19.791Z,2.27
2018-04-10T09:51:10.420Z,2.01
2018-04-10T09:57:01.091Z,1.61
2018-04-10T10:08:42.557Z,2.16
2018-04-10T10:14:33.136Z,2.04
2018-04-10T10:20:23.809Z,2.19
2018-04-10T10:26:14.468Z,2.4
2018-04-10T10:32:05.123Z,1.82
2018-04-10T10:37:55.812Z,2.29
2018-04-10T10:43:46.472Z,1.78
2018-04-10T10:49:37.125Z,2.38
2018-04-10T10:55:27.838Z,2.54
2018-04-10T11:01:18.492Z,2.41
2018-04-10T11:07:09.173Z,2.53
2018-04-10T11:12:59.815Z,2.31
2018-04-10T11:18:50.492Z,2.57
2018-04-10T11:24:41.163Z,2.45
2018-04-10T11:30:31.810Z,2.16
2018-04-10T11:36:22.513Z,2.59
2018-04-10T11:42:13.132Z,2.33
2018-04-10T11:48:03.837Z,2.74
2018-04-10T11:53:54.473Z,3.01
2018-04-10T11:59:45.139Z,2.63
2018-04-10T12:05:35.808Z,2.85
2018-04-10T12:11:26.450Z,2.7
2018-04-10T12:17:17.120Z,3.14
2018-04-10T12:23:07.800Z,3.27
2018-04-10T12:28:58.450Z,4.8
2018-04-10T12:34:49.117Z,4.12
2018-04-10T12:40:39.786Z,3.42
2018-04-10T12:46:30.433Z,3.57
2018-04-10T12:52:21.122Z,3.49
2018-04-10T12:58:11.784Z,3.9
2018-04-10T13:04:02.446Z,3.53
2018-04-10T13:09:53.099Z,5.43
2018-04-10T13:15:43.763Z,4.07
2018-04-10T13:21:34.472Z,4.29
2018-04-10T13:27:25.071Z,4.06
2018-04-10T13:33:15.740Z,3.75
2018-04-10T13:39:06.427Z,2.17
2018-04-10T13:44:57.020Z,1.79
2018-04-10T13:50:47.734Z,2.03
2018-04-10T13:56:38.355Z,2.21
2018-04-10T14:02:29.024Z,2.73
2018-04-10T14:08:19.668Z,1.74
2018-04-10T14:14:10.325Z,1.79
2018-04-10T14:20:01.022Z,2.33
2018-04-10T14:25:51.613Z,3.04
2018-04-10T14:31:42.303Z,1.76
2018-04-10T14:37:32.947Z,2.06
2018-04-10T14:43:23.531Z,3.01
2018-04-10T14:49:14.202Z,1.58
2018-04-10T14:55:04.847Z,0.77
2018-04-10T15:00:55.491Z,0.94
2018-04-10T15:06:46.173Z,0.79
2018-04-10T15:12:36.762Z,1.15
2018-04-10T15:18:27.412Z,0.74
2018-04-10T15:24:18.055Z,0.99
2018-04-10T15:30:08.698Z,0.98
2018-04-10T15:35:59.346Z,0.8
2018-04-10T15:41:50.035Z,0.92
2018-04-10T15:47:40.617Z,1.61
2018-04-10T15:53:31.347Z,2.77
2018-04-10T15:59:21.920Z,2.65
2018-04-10T16:05:12.583Z,3.38
2018-04-10T16:11:03.207Z,4.04
2018-04-10T16:16:53.871Z,3.47
2018-04-10T16:22:44.509Z,2.92
2018-04-10T16:28:35.154Z,3.19
2018-04-10T16:34:25.787Z,2.6
2018-04-10T16:40:16.465Z,2.56
2018-04-10T16:46:07.126Z,2.68
2018-04-10T16:51:57.763Z,2.46
2018-04-10T16:57:48.449Z,1.59
2018-04-10T17:03:39.112Z,2.09
2018-04-10T17:09:29.675Z,2.59
2018-04-10T17:15:20.310Z,2.6
2018-04-10T17:21:11.055Z,1.5
2018-04-10T17:27:01.608Z,1.45
2018-04-10T17:32:52.329Z,1.74
2018-04-10T17:38:42.917Z,2.15
2018-04-10T17:44:33.581Z,3.05
2018-04-10T17:50:24.269Z,2.69
2018-04-10T17:56:14.818Z,2.68
2018-04-10T18:02:05.510Z,2.01
2018-04-10T18:07:56.143Z,1.94
2018-04-10T18:13:46.765Z,2.69
2018-04-10T18:19:37.411Z,4.7
2018-04-10T18:25:28.090Z,3.71
2018-04-10T18:31:18.725Z,4.35
2018-04-10T18:37:09.376Z,5.57
2018-04-10T18:43:00.012Z,5.45
2018-04-10T18:48:50.698Z,8.14
2018-04-10T18:54:41.344Z,4.24
2018-04-10T19:00:31.960Z,4.11
2018-04-10T19:06:22.625Z,3.94
2018-04-10T19:12:13.281Z,2.51
2018-04-10T19:18:04.048Z,2.52
2018-04-10T19:23:54.560Z,3.08
2018-04-10T19:29:45.214Z,3.24
2018-04-10T19:35:35.920Z,4.16
2018-04-10T19:41:26.522Z,4.46
2018-04-10T19:47:17.215Z,5.83
2018-04-10T19:53:07.817Z,4.5
2018-04-10T19:58:58.507Z,4.03
2018-04-10T20:04:49.170Z,5.49
2018-04-10T20:10:39.794Z,6.79
2018-04-10T20:16:30.441Z,9.14
2018-04-10T20:22:21.090Z,5.4
2018-04-10T20:28:11.713Z,4.47
2018-04-10T20:34:02.393Z,6.2
2018-04-10T20:39:53.073Z,7.14
2018-04-10T20:45:43.712Z,7.56
2018-04-10T20:51:34.334Z,5.89
2018-04-10T20:57:24.982Z,6.51
2018-04-10T21:03:15.622Z,6.88
2018-04-10T21:09:06.275Z,6.18
2018-04-10T21:14:56.997Z,6.45
2018-04-10T21:20:47.632Z,6.58
2018-04-10T21:26:38.271Z,7.02
2018-04-10T21:32:28.936Z,8.37
2018-04-10T21:38:19.566Z,6.43
2018-04-10T21:44:10.197Z,7.56
2018-04-10T21:50:00.866Z,8.02
2018-04-10T21:55:51.529Z,8.22
2018-04-10T22:01:42.139Z,8.11
2018-04-10T22:08:54.549Z,7.6
2018-04-10T22:14:45.243Z,8.16
2018-04-10T22:20:35.844Z,8.62
2018-04-10T22:26:26.520Z,8.38
2018-04-10T22:32:17.158Z,9.7
2018-04-10T22:38:07.738Z,9.63
2018-04-10T22:43:58.366Z,10.5
2018-04-10T22:49:49.096Z,9.86
2018-04-10T22:55:39.696Z,9.81
2018-04-10T23:01:30.334Z,9.93
2018-04-10T23:07:21.042Z,9.75
2018-04-10T23:13:11.649Z,11.22
2018-04-10T23:19:02.374Z,10.36
2018-04-10T23:24:52.979Z,10.26
2018-04-10T23:30:43.642Z,11.59
2018-04-10T23:36:34.317Z,11.82
2018-04-10T23:42:24.973Z,12.5
2018-04-10T23:48:15.564Z,11.89
2018-04-10T23:54:06.262Z,13.36
2018-04-10T23:59:56.875Z,13.8
